Terminal Aerodrome Forecast
Issued by NWS Shreveport, LA

Home | Current Version | Previous Version | Text Only | Print | Product List | Glossary On
Versions: 1 2 3 4 5 6 7 8 9 10 11 12 13 14 15
000
FTUS44 KSHV 161100
TAFGGG
TAF
KGGG 161121Z 1612/1712 14010KT P6SM SCT250
     FM161500 14012G18KT P6SM BKN250
     FM170000 15007KT P6SM SCT250=

USA.gov is the U.S. government's official web portal to all federal, state and local government web resources and services.